SHMÚ vydal meteorologické výstrahy na Prízemný mráz Zobraziť výstrahy

METAR

Letisková meteorologická správa METAR

Meteorologické informácie z ďalších profesionálnych meteorologických staníc SHMÚ zobrazené v tvare zodpovedajúcom pravidlám kódovania správ METAR sú uvedené v položke „METSYN

Informácie o správe METAR

20.05.2018 - 11:00 UTC

METAR LZIB 201100Z VRB05KT 9999 FEW033 21/12 Q1021 NOSIG=
METAR LZKZ 201100Z 02012KT 9999 FEW045 19/09 Q1021 NOSIG=
METAR LZPP 201100Z 27004KT 210V330 9999 SCT032 21/10 Q1021=
METAR LZSL 201100Z VRB02KT 9999 FEW045 SCT100 23/04 Q1021=
METAR LZTT 201100Z 04011KT 010V070 9999 FEW043 SCT066 17/07 Q1023
NOSIG=
METAR LZZI 201100Z 06010KT 9999 SCT055 SCT093 20/08 Q1022=

20.05.2018 - 10:30 UTC

METAR LZIB 201030Z 12003KT 040V200 9999 FEW032 SCT050 21/13 Q1022
NOSIG=
METAR LZKZ 201030Z 03010KT 360V060 9999 FEW040 SCT090 20/10 Q1021
NOSIG=
METAR LZPP 201030Z VRB02KT 9999 SCT030 22/11 Q1022=
METAR LZSL 201030Z VRB02KT 9999 FEW045 23/04 Q1021=
METAR LZTT 201030Z 04012KT 9999 SCT043 SCT066 17/09 Q1023 NOSIG=
METAR LZZI 201030Z 09006KT 020V160 9999 BKN054 20/08 Q1022=

20.05.2018 - 11:00 UTC

METAR LZMC 201100Z 36006KT 9999 BKN038 21/09 Q1022=
METAR LZPW 201100Z 06008KT 9999 SCT040 SCT100 18/09
Q1022=

skok na menu ↑


skok na začiatok stránky ↑